sensor_id;sensor_type;location;lat;lon;timestamp;temperature;humidity
20650;DHT22;10484;48.736;9.332;2023-08-30T00:01:48;15.80;76.00
20650;DHT22;10484;48.736;9.332;2023-08-30T00:04:14;15.80;76.20
20650;DHT22;10484;48.736;9.332;2023-08-30T00:06:39;15.80;77.10
20650;DHT22;10484;48.736;9.332;2023-08-30T00:09:05;15.80;77.60
20650;DHT22;10484;48.736;9.332;2023-08-30T00:11:31;15.80;77.80
20650;DHT22;10484;48.736;9.332;2023-08-30T00:14:05;15.80;78.30
20650;DHT22;10484;48.736;9.332;2023-08-30T00:16:32;15.80;77.90
20650;DHT22;10484;48.736;9.332;2023-08-30T00:18:58;15.80;78.40
20650;DHT22;10484;48.736;9.332;2023-08-30T00:21:24;15.80;78.10
20650;DHT22;10484;48.736;9.332;2023-08-30T00:23:51;15.70;77.20
20650;DHT22;10484;48.736;9.332;2023-08-30T00:26:16;15.70;77.30
20650;DHT22;10484;48.736;9.332;2023-08-30T00:28:42;15.70;76.70
20650;DHT22;10484;48.736;9.332;2023-08-30T00:31:08;15.70;77.10
20650;DHT22;10484;48.736;9.332;2023-08-30T00:33:34;15.70;77.30
20650;DHT22;10484;48.736;9.332;2023-08-30T00:36:00;15.70;78.00
20650;DHT22;10484;48.736;9.332;2023-08-30T00:38:28;15.70;78.80
20650;DHT22;10484;48.736;9.332;2023-08-30T00:40:54;15.70;78.90
20650;DHT22;10484;48.736;9.332;2023-08-30T00:43:20;15.60;79.50
20650;DHT22;10484;48.736;9.332;2023-08-30T00:45:47;15.60;79.70
20650;DHT22;10484;48.736;9.332;2023-08-30T00:48:14;15.60;80.00
20650;DHT22;10484;48.736;9.332;2023-08-30T00:50:42;15.60;80.30
20650;DHT22;10484;48.736;9.332;2023-08-30T00:53:08;15.60;80.60
20650;DHT22;10484;48.736;9.332;2023-08-30T00:55:37;15.60;80.60
20650;DHT22;10484;48.736;9.332;2023-08-30T00:58:03;15.60;80.10
20650;DHT22;10484;48.736;9.332;2023-08-30T01:00:33;15.60;80.20
20650;DHT22;10484;48.736;9.332;2023-08-30T01:02:59;15.60;79.30
20650;DHT22;10484;48.736;9.332;2023-08-30T01:05:25;15.50;79.50
20650;DHT22;10484;48.736;9.332;2023-08-30T01:07:51;15.50;79.70
20650;DHT22;10484;48.736;9.332;2023-08-30T01:10:18;15.50;79.90
20650;DHT22;10484;48.736;9.332;2023-08-30T01:12:49;15.50;79.30
20650;DHT22;10484;48.736;9.332;2023-08-30T01:15:19;15.50;79.50
20650;DHT22;10484;48.736;9.332;2023-08-30T01:17:47;15.50;79.20
20650;DHT22;10484;48.736;9.332;2023-08-30T01:20:15;15.50;79.40
20650;DHT22;10484;48.736;9.332;2023-08-30T01:25:57;15.50;79.00
20650;DHT22;10484;48.736;9.332;2023-08-30T01:28:25;15.40;78.50
20650;DHT22;10484;48.736;9.332;2023-08-30T01:30:53;15.40;78.50
20650;DHT22;10484;48.736;9.332;2023-08-30T01:33:23;15.40;78.70
20650;DHT22;10484;48.736;9.332;2023-08-30T01:35:49;15.40;78.70
20650;DHT22;10484;48.736;9.332;2023-08-30T01:38:16;15.40;78.80
20650;DHT22;10484;48.736;9.332;2023-08-30T01:40:43;15.40;78.70
20650;DHT22;10484;48.736;9.332;2023-08-30T01:43:09;15.40;78.70
20650;DHT22;10484;48.736;9.332;2023-08-30T01:45:39;15.40;78.40
20650;DHT22;10484;48.736;9.332;2023-08-30T01:48:08;15.40;78.10
20650;DHT22;10484;48.736;9.332;2023-08-30T01:50:34;15.30;78.00
20650;DHT22;10484;48.736;9.332;2023-08-30T01:53:02;15.30;78.00
20650;DHT22;10484;48.736;9.332;2023-08-30T01:55:28;15.30;77.80
20650;DHT22;10484;48.736;9.332;2023-08-30T01:57:54;15.30;78.00
20650;DHT22;10484;48.736;9.332;2023-08-30T02:00:20;15.30;77.80
20650;DHT22;10484;48.736;9.332;2023-08-30T02:02:47;15.30;77.70
20650;DHT22;10484;48.736;9.332;2023-08-30T02:05:13;15.30;77.90
20650;DHT22;10484;48.736;9.332;2023-08-30T02:07:40;15.30;78.00
20650;DHT22;10484;48.736;9.332;2023-08-30T02:10:10;15.30;77.80
20650;DHT22;10484;48.736;9.332;2023-08-30T02:12:48;15.20;78.30
20650;DHT22;10484;48.736;9.332;2023-08-30T02:15:16;15.20;77.60
20650;DHT22;10484;48.736;9.332;2023-08-30T02:17:42;15.20;78.20
20650;DHT22;10484;48.736;9.332;2023-08-30T02:20:09;15.20;78.30
20650;DHT22;10484;48.736;9.332;2023-08-30T02:22:35;15.20;78.50
20650;DHT22;10484;48.736;9.332;2023-08-30T02:25:01;15.20;78.80
20650;DHT22;10484;48.736;9.332;2023-08-30T02:27:33;15.20;79.20
20650;DHT22;10484;48.736;9.332;2023-08-30T02:30:00;15.20;79.10
20650;DHT22;10484;48.736;9.332;2023-08-30T02:32:25;15.20;78.90
20650;DHT22;10484;48.736;9.332;2023-08-30T02:34:52;15.20;78.90
20650;DHT22;10484;48.736;9.332;2023-08-30T02:37:19;15.10;78.80
20650;DHT22;10484;48.736;9.332;2023-08-30T02:39:44;15.10;79.00
20650;DHT22;10484;48.736;9.332;2023-08-30T02:42:10;15.10;79.00
20650;DHT22;10484;48.736;9.332;2023-08-30T02:44:35;15.10;79.20
20650;DHT22;10484;48.736;9.332;2023-08-30T02:47:01;15.10;79.70
20650;DHT22;10484;48.736;9.332;2023-08-30T02:49:27;15.10;79.90
20650;DHT22;10484;48.736;9.332;2023-08-30T02:51:52;15.10;79.90
20650;DHT22;10484;48.736;9.332;2023-08-30T02:54:18;15.10;80.50
20650;DHT22;10484;48.736;9.332;2023-08-30T02:56:44;15.10;80.50
20650;DHT22;10484;48.736;9.332;2023-08-30T02:59:10;15.10;81.00
20650;DHT22;10484;48.736;9.332;2023-08-30T03:01:37;15.10;81.10
20650;DHT22;10484;48.736;9.332;2023-08-30T03:04:05;15.00;81.20
20650;DHT22;10484;48.736;9.332;2023-08-30T03:06:32;15.00;81.40
20650;DHT22;10484;48.736;9.332;2023-08-30T03:08:58;15.00;81.70
20650;DHT22;10484;48.736;9.332;2023-08-30T03:11:23;15.00;82.00
20650;DHT22;10484;48.736;9.332;2023-08-30T03:13:49;15.00;82.30
20650;DHT22;10484;48.736;9.332;2023-08-30T03:16:16;15.00;82.50
20650;DHT22;10484;48.736;9.332;2023-08-30T03:18:43;15.00;83.20
20650;DHT22;10484;48.736;9.332;2023-08-30T03:21:09;15.00;83.50
20650;DHT22;10484;48.736;9.332;2023-08-30T03:23:35;15.00;84.20
20650;DHT22;10484;48.736;9.332;2023-08-30T03:26:08;15.00;84.20
20650;DHT22;10484;48.736;9.332;2023-08-30T03:28:35;15.00;84.00
20650;DHT22;10484;48.736;9.332;2023-08-30T03:31:00;15.00;85.10
20650;DHT22;10484;48.736;9.332;2023-08-30T03:33:26;15.00;85.20
20650;DHT22;10484;48.736;9.332;2023-08-30T03:35:51;15.00;85.40
20650;DHT22;10484;48.736;9.332;2023-08-30T03:38:17;15.00;85.60
20650;DHT22;10484;48.736;9.332;2023-08-30T03:40:42;14.90;85.90
20650;DHT22;10484;48.736;9.332;2023-08-30T03:43:08;15.00;85.90
20650;DHT22;10484;48.736;9.332;2023-08-30T03:45:38;14.90;86.30
20650;DHT22;10484;48.736;9.332;2023-08-30T03:48:04;15.00;86.50
20650;DHT22;10484;48.736;9.332;2023-08-30T03:50:30;14.90;86.30
20650;DHT22;10484;48.736;9.332;2023-08-30T03:52:55;14.90;86.40
20650;DHT22;10484;48.736;9.332;2023-08-30T03:55:21;14.90;86.30
20650;DHT22;10484;48.736;9.332;2023-08-30T03:57:48;14.90;86.10
20650;DHT22;10484;48.736;9.332;2023-08-30T04:00:14;14.90;85.90
20650;DHT22;10484;48.736;9.332;2023-08-30T04:02:39;14.90;85.90
20650;DHT22;10484;48.736;9.332;2023-08-30T04:05:05;14.90;85.40
20650;DHT22;10484;48.736;9.332;2023-08-30T04:07:35;14.90;85.30
20650;DHT22;10484;48.736;9.332;2023-08-30T04:10:00;14.90;85.00
20650;DHT22;10484;48.736;9.332;2023-08-30T04:12:28;14.90;84.80
20650;DHT22;10484;48.736;9.332;2023-08-30T04:14:54;14.90;84.60
20650;DHT22;10484;48.736;9.332;2023-08-30T04:17:19;14.90;84.80
20650;DHT22;10484;48.736;9.332;2023-08-30T04:19:45;14.90;85.30
20650;DHT22;10484;48.736;9.332;2023-08-30T04:22:10;14.90;85.10
20650;DHT22;10484;48.736;9.332;2023-08-30T04:24:36;14.80;85.30
20650;DHT22;10484;48.736;9.332;2023-08-30T04:27:01;14.80;85.40
20650;DHT22;10484;48.736;9.332;2023-08-30T04:29:27;14.80;85.40
20650;DHT22;10484;48.736;9.332;2023-08-30T04:31:52;14.80;85.40
20650;DHT22;10484;48.736;9.332;2023-08-30T04:34:19;14.80;85.90
20650;DHT22;10484;48.736;9.332;2023-08-30T04:36:45;14.80;86.10
20650;DHT22;10484;48.736;9.332;2023-08-30T04:39:12;14.80;85.70
20650;DHT22;10484;48.736;9.332;2023-08-30T04:41:39;14.80;86.00
20650;DHT22;10484;48.736;9.332;2023-08-30T04:44:04;14.80;86.60
20650;DHT22;10484;48.736;9.332;2023-08-30T04:46:30;14.80;86.90
20650;DHT22;10484;48.736;9.332;2023-08-30T04:48:55;14.80;87.00
20650;DHT22;10484;48.736;9.332;2023-08-30T04:51:21;14.70;87.20
20650;DHT22;10484;48.736;9.332;2023-08-30T04:53:46;14.70;87.70
20650;DHT22;10484;48.736;9.332;2023-08-30T04:56:13;14.70;87.80
20650;DHT22;10484;48.736;9.332;2023-08-30T04:58:39;14.80;87.80
20650;DHT22;10484;48.736;9.332;2023-08-30T05:01:05;14.70;87.90
20650;DHT22;10484;48.736;9.332;2023-08-30T05:03:30;14.70;88.20
20650;DHT22;10484;48.736;9.332;2023-08-30T05:05:56;14.70;88.60
20650;DHT22;10484;48.736;9.332;2023-08-30T05:08:21;14.70;88.90
20650;DHT22;10484;48.736;9.332;2023-08-30T05:10:47;14.70;89.30
20650;DHT22;10484;48.736;9.332;2023-08-30T05:13:16;14.70;89.70
20650;DHT22;10484;48.736;9.332;2023-08-30T05:15:42;14.70;89.80
20650;DHT22;10484;48.736;9.332;2023-08-30T05:18:07;14.60;90.20
20650;DHT22;10484;48.736;9.332;2023-08-30T05:20:33;14.60;90.50
20650;DHT22;10484;48.736;9.332;2023-08-30T05:22:59;14.60;90.70
20650;DHT22;10484;48.736;9.332;2023-08-30T05:25:24;14.60;90.90
20650;DHT22;10484;48.736;9.332;2023-08-30T05:27:50;14.60;90.90
20650;DHT22;10484;48.736;9.332;2023-08-30T05:30:15;14.60;91.10
20650;DHT22;10484;48.736;9.332;2023-08-30T05:32:41;14.60;91.40
20650;DHT22;10484;48.736;9.332;2023-08-30T05:35:07;14.60;91.50
20650;DHT22;10484;48.736;9.332;2023-08-30T05:37:33;14.60;91.70
20650;DHT22;10484;48.736;9.332;2023-08-30T05:39:58;14.70;91.90
20650;DHT22;10484;48.736;9.332;2023-08-30T05:42:24;14.60;91.90
20650;DHT22;10484;48.736;9.332;2023-08-30T05:44:49;14.60;91.70
20650;DHT22;10484;48.736;9.332;2023-08-30T05:47:15;14.60;91.80
20650;DHT22;10484;48.736;9.332;2023-08-30T05:49:42;14.60;91.60
20650;DHT22;10484;48.736;9.332;2023-08-30T05:52:07;14.60;91.60
20650;DHT22;10484;48.736;9.332;2023-08-30T05:54:33;14.60;91.70
20650;DHT22;10484;48.736;9.332;2023-08-30T05:56:59;14.60;91.90
20650;DHT22;10484;48.736;9.332;2023-08-30T05:59:25;14.60;92.20
20650;DHT22;10484;48.736;9.332;2023-08-30T06:01:50;14.60;92.60
20650;DHT22;10484;48.736;9.332;2023-08-30T06:04:16;14.60;92.70
20650;DHT22;10484;48.736;9.332;2023-08-30T06:06:41;14.60;93.20
20650;DHT22;10484;48.736;9.332;2023-08-30T06:09:07;14.60;93.50
20650;DHT22;10484;48.736;9.332;2023-08-30T06:11:33;14.60;93.90
20650;DHT22;10484;48.736;9.332;2023-08-30T06:13:58;14.60;94.00
20650;DHT22;10484;48.736;9.332;2023-08-30T06:16:25;14.60;94.20
20650;DHT22;10484;48.736;9.332;2023-08-30T06:18:50;14.60;94.50
20650;DHT22;10484;48.736;9.332;2023-08-30T06:21:16;14.60;95.30
20650;DHT22;10484;48.736;9.332;2023-08-30T06:23:42;14.60;95.70
20650;DHT22;10484;48.736;9.332;2023-08-30T06:26:08;14.60;96.00
20650;DHT22;10484;48.736;9.332;2023-08-30T06:28:33;14.60;96.10
20650;DHT22;10484;48.736;9.332;2023-08-30T06:30:59;14.60;96.30
20650;DHT22;10484;48.736;9.332;2023-08-30T06:33:24;14.60;96.80
20650;DHT22;10484;48.736;9.332;2023-08-30T06:35:50;14.60;97.10
20650;DHT22;10484;48.736;9.332;2023-08-30T06:38:16;14.60;97.20
20650;DHT22;10484;48.736;9.332;2023-08-30T06:40:45;14.60;97.60
20650;DHT22;10484;48.736;9.332;2023-08-30T06:43:12;14.60;98.00
20650;DHT22;10484;48.736;9.332;2023-08-30T06:45:38;14.60;98.60
20650;DHT22;10484;48.736;9.332;2023-08-30T06:48:06;14.60;99.30
20650;DHT22;10484;48.736;9.332;2023-08-30T06:50:33;14.60;99.80
20650;DHT22;10484;48.736;9.332;2023-08-30T06:52:58;14.60;99.90
20650;DHT22;10484;48.736;9.332;2023-08-30T06:55:24;14.60;99.90
20650;DHT22;10484;48.736;9.332;2023-08-30T06:57:49;14.60;99.70
20650;DHT22;10484;48.736;9.332;2023-08-30T07:00:16;14.60;99.90
20650;DHT22;10484;48.736;9.332;2023-08-30T07:02:42;14.60;99.90
20650;DHT22;10484;48.736;9.332;2023-08-30T07:05:11;14.60;99.90
20650;DHT22;10484;48.736;9.332;2023-08-30T07:07:37;14.60;99.90
20650;DHT22;10484;48.736;9.332;2023-08-30T07:10:02;14.60;99.90
20650;DHT22;10484;48.736;9.332;2023-08-30T07:12:28;14.60;99.90
20650;DHT22;10484;48.736;9.332;2023-08-30T07:14:53;14.70;99.90
20650;DHT22;10484;48.736;9.332;2023-08-30T07:17:19;14.70;99.90
20650;DHT22;10484;48.736;9.332;2023-08-30T07:19:45;14.70;99.90
20650;DHT22;10484;48.736;9.332;2023-08-30T07:22:11;14.70;99.90
20650;DHT22;10484;48.736;9.332;2023-08-30T07:24:36;14.70;99.90
20650;DHT22;10484;48.736;9.332;2023-08-30T07:27:02;14.70;99.90
20650;DHT22;10484;48.736;9.332;2023-08-30T07:29:28;14.70;99.90
20650;DHT22;10484;48.736;9.332;2023-08-30T07:31:54;14.70;99.90
20650;DHT22;10484;48.736;9.332;2023-08-30T07:34:20;14.70;99.90
20650;DHT22;10484;48.736;9.332;2023-08-30T07:36:46;14.70;99.90
20650;DHT22;10484;48.736;9.332;2023-08-30T07:39:12;14.70;99.90
20650;DHT22;10484;48.736;9.332;2023-08-30T07:41:37;14.70;99.90
20650;DHT22;10484;48.736;9.332;2023-08-30T07:44:03;14.70;99.90
20650;DHT22;10484;48.736;9.332;2023-08-30T07:46:29;14.80;99.90
20650;DHT22;10484;48.736;9.332;2023-08-30T07:48:55;14.80;99.90
20650;DHT22;10484;48.736;9.332;2023-08-30T07:51:21;14.80;99.90
20650;DHT22;10484;48.736;9.332;2023-08-30T07:53:47;14.80;99.90
20650;DHT22;10484;48.736;9.332;2023-08-30T07:56:12;14.80;99.90
20650;DHT22;10484;48.736;9.332;2023-08-30T07:58:40;14.80;99.90
20650;DHT22;10484;48.736;9.332;2023-08-30T08:01:05;14.80;99.90
20650;DHT22;10484;48.736;9.332;2023-08-30T08:03:31;14.80;99.90
20650;DHT22;10484;48.736;9.332;2023-08-30T08:05:58;14.90;99.90
20650;DHT22;10484;48.736;9.332;2023-08-30T08:08:24;14.90;99.90
20650;DHT22;10484;48.736;9.332;2023-08-30T08:10:50;14.90;99.90
20650;DHT22;10484;48.736;9.332;2023-08-30T08:13:15;14.90;99.90
20650;DHT22;10484;48.736;9.332;2023-08-30T08:15:41;14.90;99.90
20650;DHT22;10484;48.736;9.332;2023-08-30T08:18:06;14.90;99.90
20650;DHT22;10484;48.736;9.332;2023-08-30T08:20:32;14.90;99.90
20650;DHT22;10484;48.736;9.332;2023-08-30T08:22:58;15.00;99.90
20650;DHT22;10484;48.736;9.332;2023-08-30T08:25:24;15.00;99.90
20650;DHT22;10484;48.736;9.332;2023-08-30T08:27:49;15.00;99.90
20650;DHT22;10484;48.736;9.332;2023-08-30T08:30:16;15.10;99.90
20650;DHT22;10484;48.736;9.332;2023-08-30T08:32:42;15.10;99.90
20650;DHT22;10484;48.736;9.332;2023-08-30T08:35:07;15.10;99.90
20650;DHT22;10484;48.736;9.332;2023-08-30T08:37:34;15.10;99.90
20650;DHT22;10484;48.736;9.332;2023-08-30T08:40:00;15.10;99.90
20650;DHT22;10484;48.736;9.332;2023-08-30T08:42:26;15.20;99.90
20650;DHT22;10484;48.736;9.332;2023-08-30T08:44:54;15.20;99.90
20650;DHT22;10484;48.736;9.332;2023-08-30T08:47:20;15.20;99.70
20650;DHT22;10484;48.736;9.332;2023-08-30T08:49:50;15.20;99.40
20650;DHT22;10484;48.736;9.332;2023-08-30T08:52:16;15.30;99.00
20650;DHT22;10484;48.736;9.332;2023-08-30T08:54:43;15.30;98.60
20650;DHT22;10484;48.736;9.332;2023-08-30T08:57:09;15.40;98.10
20650;DHT22;10484;48.736;9.332;2023-08-30T08:59:35;15.40;97.60
20650;DHT22;10484;48.736;9.332;2023-08-30T09:02:01;15.40;96.70
20650;DHT22;10484;48.736;9.332;2023-08-30T09:04:30;15.40;96.10
20650;DHT22;10484;48.736;9.332;2023-08-30T09:06:56;15.50;95.40
20650;DHT22;10484;48.736;9.332;2023-08-30T09:09:22;15.60;94.70
20650;DHT22;10484;48.736;9.332;2023-08-30T09:11:48;15.60;94.20
20650;DHT22;10484;48.736;9.332;2023-08-30T09:14:14;15.60;93.20
20650;DHT22;10484;48.736;9.332;2023-08-30T09:16:39;15.70;92.60
20650;DHT22;10484;48.736;9.332;2023-08-30T09:19:05;15.70;91.50
20650;DHT22;10484;48.736;9.332;2023-08-30T09:21:31;15.70;90.50
20650;DHT22;10484;48.736;9.332;2023-08-30T09:24:04;15.80;89.70
20650;DHT22;10484;48.736;9.332;2023-08-30T09:26:31;15.80;89.00
20650;DHT22;10484;48.736;9.332;2023-08-30T09:29:04;15.90;86.60
20650;DHT22;10484;48.736;9.332;2023-08-30T09:31:33;15.90;85.00
20650;DHT22;10484;48.736;9.332;2023-08-30T09:33:59;16.00;83.20
20650;DHT22;10484;48.736;9.332;2023-08-30T09:36:32;16.10;81.70
20650;DHT22;10484;48.736;9.332;2023-08-30T09:38:58;16.10;79.70
20650;DHT22;10484;48.736;9.332;2023-08-30T09:41:24;16.20;78.40
20650;DHT22;10484;48.736;9.332;2023-08-30T09:43:50;16.30;77.00
20650;DHT22;10484;48.736;9.332;2023-08-30T09:46:16;16.30;75.00
20650;DHT22;10484;48.736;9.332;2023-08-30T09:48:42;16.40;73.10
20650;DHT22;10484;48.736;9.332;2023-08-30T09:51:08;16.50;72.20
20650;DHT22;10484;48.736;9.332;2023-08-30T09:53:41;16.60;70.70
20650;DHT22;10484;48.736;9.332;2023-08-30T09:56:10;16.60;67.60
20650;DHT22;10484;48.736;9.332;2023-08-30T09:58:38;16.70;65.90
20650;DHT22;10484;48.736;9.332;2023-08-30T10:01:04;16.80;63.90
20650;DHT22;10484;48.736;9.332;2023-08-30T10:03:30;16.80;61.40
20650;DHT22;10484;48.736;9.332;2023-08-30T10:05:57;16.90;59.60
20650;DHT22;10484;48.736;9.332;2023-08-30T10:08:25;17.00;58.00
20650;DHT22;10484;48.736;9.332;2023-08-30T10:10:57;17.10;56.00
20650;DHT22;10484;48.736;9.332;2023-08-30T10:13:23;17.10;53.10
20650;DHT22;10484;48.736;9.332;2023-08-30T10:15:53;17.20;49.90
20650;DHT22;10484;48.736;9.332;2023-08-30T10:18:21;17.30;46.80
20650;DHT22;10484;48.736;9.332;2023-08-30T10:20:48;17.40;44.70
20650;DHT22;10484;48.736;9.332;2023-08-30T10:23:16;17.50;43.70
20650;DHT22;10484;48.736;9.332;2023-08-30T10:25:43;17.60;43.40
20650;DHT22;10484;48.736;9.332;2023-08-30T10:28:09;17.70;43.00
20650;DHT22;10484;48.736;9.332;2023-08-30T10:30:35;17.80;43.00
20650;DHT22;10484;48.736;9.332;2023-08-30T10:33:01;17.90;43.30
20650;DHT22;10484;48.736;9.332;2023-08-30T10:35:28;18.00;43.20
20650;DHT22;10484;48.736;9.332;2023-08-30T10:37:55;18.10;47.30
20650;DHT22;10484;48.736;9.332;2023-08-30T10:40:21;18.20;43.40
20650;DHT22;10484;48.736;9.332;2023-08-30T10:43:02;18.30;43.40
20650;DHT22;10484;48.736;9.332;2023-08-30T10:45:28;18.40;43.60
20650;DHT22;10484;48.736;9.332;2023-08-30T10:47:56;18.40;43.10
20650;DHT22;10484;48.736;9.332;2023-08-30T10:50:31;18.50;43.00
20650;DHT22;10484;48.736;9.332;2023-08-30T10:52:58;18.60;42.70
20650;DHT22;10484;48.736;9.332;2023-08-30T10:55:24;18.60;41.90
20650;DHT22;10484;48.736;9.332;2023-08-30T10:58:02;18.70;40.70
20650;DHT22;10484;48.736;9.332;2023-08-30T11:00:29;18.80;42.30
20650;DHT22;10484;48.736;9.332;2023-08-30T11:02:56;18.80;34.80
20650;DHT22;10484;48.736;9.332;2023-08-30T11:05:23;18.80;31.90
20650;DHT22;10484;48.736;9.332;2023-08-30T11:07:52;18.90;30.00
20650;DHT22;10484;48.736;9.332;2023-08-30T11:10:19;19.00;29.00
20650;DHT22;10484;48.736;9.332;2023-08-30T11:12:45;19.00;24.20
20650;DHT22;10484;48.736;9.332;2023-08-30T11:15:13;19.00;24.70
20650;DHT22;10484;48.736;9.332;2023-08-30T11:17:39;19.10;24.00
20650;DHT22;10484;48.736;9.332;2023-08-30T11:20:09;19.10;23.00
20650;DHT22;10484;48.736;9.332;2023-08-30T11:22:46;19.20;21.70
20650;DHT22;10484;48.736;9.332;2023-08-30T11:25:13;19.20;21.10
20650;DHT22;10484;48.736;9.332;2023-08-30T11:27:39;19.20;19.70
20650;DHT22;10484;48.736;9.332;2023-08-30T11:30:06;19.30;19.10
20650;DHT22;10484;48.736;9.332;2023-08-30T11:32:34;19.40;17.80
20650;DHT22;10484;48.736;9.332;2023-08-30T11:35:00;19.40;17.30
20650;DHT22;10484;48.736;9.332;2023-08-30T11:37:27;19.40;16.10
20650;DHT22;10484;48.736;9.332;2023-08-30T11:39:54;19.50;15.50
20650;DHT22;10484;48.736;9.332;2023-08-30T11:42:21;19.50;14.00
20650;DHT22;10484;48.736;9.332;2023-08-30T11:44:46;19.60;13.30
20650;DHT22;10484;48.736;9.332;2023-08-30T11:47:27;19.60;12.50
20650;DHT22;10484;48.736;9.332;2023-08-30T11:49:54;19.70;11.70
20650;DHT22;10484;48.736;9.332;2023-08-30T11:52:21;19.80;10.90
20650;DHT22;10484;48.736;9.332;2023-08-30T11:54:48;19.90;9.30
20650;DHT22;10484;48.736;9.332;2023-08-30T11:57:14;19.90;8.10
20650;DHT22;10484;48.736;9.332;2023-08-30T11:59:40;20.00;7.00
20650;DHT22;10484;48.736;9.332;2023-08-30T12:02:07;20.00;5.60
20650;DHT22;10484;48.736;9.332;2023-08-30T12:04:39;20.00;6.10
20650;DHT22;10484;48.736;9.332;2023-08-30T12:07:05;20.00;7.00
20650;DHT22;10484;48.736;9.332;2023-08-30T12:09:31;20.10;6.60
20650;DHT22;10484;48.736;9.332;2023-08-30T12:12:10;20.10;5.50
20650;DHT22;10484;48.736;9.332;2023-08-30T12:14:37;20.10;5.40
20650;DHT22;10484;48.736;9.332;2023-08-30T12:17:03;20.10;4.50
20650;DHT22;10484;48.736;9.332;2023-08-30T12:19:29;20.10;4.20
20650;DHT22;10484;48.736;9.332;2023-08-30T12:21:54;20.10;3.90
20650;DHT22;10484;48.736;9.332;2023-08-30T12:24:20;20.20;3.50
20650;DHT22;10484;48.736;9.332;2023-08-30T12:26:48;20.20;2.00
20650;DHT22;10484;48.736;9.332;2023-08-30T12:29:13;20.20;1.40
20650;DHT22;10484;48.736;9.332;2023-08-30T12:31:39;20.20;1.00
20650;DHT22;10484;48.736;9.332;2023-08-30T12:34:05;20.10;1.00
20650;DHT22;10484;48.736;9.332;2023-08-30T12:36:30;20.10;1.00
20650;DHT22;10484;48.736;9.332;2023-08-30T12:38:57;20.00;1.00
20650;DHT22;10484;48.736;9.332;2023-08-30T12:41:22;19.90;1.00
20650;DHT22;10484;48.736;9.332;2023-08-30T12:43:49;19.80;1.90
20650;DHT22;10484;48.736;9.332;2023-08-30T12:46:15;19.80;3.60
20650;DHT22;10484;48.736;9.332;2023-08-30T12:48:41;19.80;4.80
20650;DHT22;10484;48.736;9.332;2023-08-30T12:51:06;19.70;5.80
20650;DHT22;10484;48.736;9.332;2023-08-30T12:53:32;19.70;6.80
20650;DHT22;10484;48.736;9.332;2023-08-30T12:55:57;19.70;7.60
20650;DHT22;10484;48.736;9.332;2023-08-30T12:58:23;19.70;8.40
20650;DHT22;10484;48.736;9.332;2023-08-30T13:00:50;19.80;9.10
20650;DHT22;10484;48.736;9.332;2023-08-30T13:03:15;19.80;10.20
20650;DHT22;10484;48.736;9.332;2023-08-30T13:05:41;19.80;10.60
20650;DHT22;10484;48.736;9.332;2023-08-30T13:08:07;19.80;11.60
20650;DHT22;10484;48.736;9.332;2023-08-30T13:10:32;19.80;12.10
20650;DHT22;10484;48.736;9.332;2023-08-30T13:12:58;19.80;12.70
20650;DHT22;10484;48.736;9.332;2023-08-30T13:15:24;19.70;13.40
20650;DHT22;10484;48.736;9.332;2023-08-30T13:17:50;19.70;14.10
20650;DHT22;10484;48.736;9.332;2023-08-30T13:20:16;19.70;14.50
20650;DHT22;10484;48.736;9.332;2023-08-30T13:22:41;19.70;14.70
20650;DHT22;10484;48.736;9.332;2023-08-30T13:25:07;19.70;15.10
20650;DHT22;10484;48.736;9.332;2023-08-30T13:27:34;19.70;15.20
20650;DHT22;10484;48.736;9.332;2023-08-30T13:29:59;19.70;15.10
20650;DHT22;10484;48.736;9.332;2023-08-30T13:32:25;19.70;15.50
20650;DHT22;10484;48.736;9.332;2023-08-30T13:34:51;19.70;15.90
20650;DHT22;10484;48.736;9.332;2023-08-30T13:37:16;19.70;16.30
20650;DHT22;10484;48.736;9.332;2023-08-30T13:39:43;19.60;16.70
20650;DHT22;10484;48.736;9.332;2023-08-30T13:42:08;19.60;17.20
20650;DHT22;10484;48.736;9.332;2023-08-30T13:44:34;19.60;17.60
20650;DHT22;10484;48.736;9.332;2023-08-30T13:47:04;19.60;18.10
20650;DHT22;10484;48.736;9.332;2023-08-30T13:49:30;19.60;18.40
20650;DHT22;10484;48.736;9.332;2023-08-30T13:51:56;19.60;18.60
20650;DHT22;10484;48.736;9.332;2023-08-30T13:54:21;19.60;19.00
20650;DHT22;10484;48.736;9.332;2023-08-30T13:56:47;19.60;19.50
20650;DHT22;10484;48.736;9.332;2023-08-30T13:59:13;19.50;20.10
20650;DHT22;10484;48.736;9.332;2023-08-30T14:01:39;19.50;20.50
20650;DHT22;10484;48.736;9.332;2023-08-30T14:04:05;19.50;20.80
20650;DHT22;10484;48.736;9.332;2023-08-30T14:06:31;19.50;21.30
20650;DHT22;10484;48.736;9.332;2023-08-30T14:08:57;19.50;21.60
20650;DHT22;10484;48.736;9.332;2023-08-30T14:11:23;19.50;22.00
20650;DHT22;10484;48.736;9.332;2023-08-30T14:13:49;19.50;22.10
20650;DHT22;10484;48.736;9.332;2023-08-30T14:16:14;19.50;21.50
20650;DHT22;10484;48.736;9.332;2023-08-30T14:18:40;19.50;20.50
20650;DHT22;10484;48.736;9.332;2023-08-30T14:21:05;19.50;21.50
20650;DHT22;10484;48.736;9.332;2023-08-30T14:23:31;19.50;22.10
20650;DHT22;10484;48.736;9.332;2023-08-30T14:26:04;19.50;20.90
20650;DHT22;10484;48.736;9.332;2023-08-30T14:28:39;19.50;21.70
20650;DHT22;10484;48.736;9.332;2023-08-30T14:31:11;19.50;17.70
20650;DHT22;10484;48.736;9.332;2023-08-30T14:33:39;19.50;17.90
20650;DHT22;10484;48.736;9.332;2023-08-30T14:36:11;19.50;15.30
20650;DHT22;10484;48.736;9.332;2023-08-30T14:38:37;19.40;15.10
20650;DHT22;10484;48.736;9.332;2023-08-30T14:41:03;19.40;17.50
20650;DHT22;10484;48.736;9.332;2023-08-30T14:43:29;19.40;15.20
20650;DHT22;10484;48.736;9.332;2023-08-30T14:46:02;19.40;17.10
20650;DHT22;10484;48.736;9.332;2023-08-30T14:48:28;19.40;17.90
20650;DHT22;10484;48.736;9.332;2023-08-30T14:50:54;19.50;21.30
20650;DHT22;10484;48.736;9.332;2023-08-30T14:53:19;19.50;17.80
20650;DHT22;10484;48.736;9.332;2023-08-30T14:55:45;19.50;18.50
20650;DHT22;10484;48.736;9.332;2023-08-30T14:58:12;19.50;19.10
20650;DHT22;10484;48.736;9.332;2023-08-30T15:00:37;19.50;19.50
20650;DHT22;10484;48.736;9.332;2023-08-30T15:03:03;19.60;19.30
20650;DHT22;10484;48.736;9.332;2023-08-30T15:05:29;19.60;19.80
20650;DHT22;10484;48.736;9.332;2023-08-30T15:07:54;19.60;20.20
20650;DHT22;10484;48.736;9.332;2023-08-30T15:10:20;19.70;20.50
20650;DHT22;10484;48.736;9.332;2023-08-30T15:12:45;19.70;20.70
20650;DHT22;10484;48.736;9.332;2023-08-30T15:15:11;19.70;20.90
20650;DHT22;10484;48.736;9.332;2023-08-30T15:17:37;19.70;21.00
20650;DHT22;10484;48.736;9.332;2023-08-30T15:20:03;19.70;21.40
20650;DHT22;10484;48.736;9.332;2023-08-30T15:22:29;19.70;21.80
20650;DHT22;10484;48.736;9.332;2023-08-30T15:24:54;19.70;21.70
20650;DHT22;10484;48.736;9.332;2023-08-30T15:27:20;19.70;21.80
20650;DHT22;10484;48.736;9.332;2023-08-30T15:29:47;19.80;21.70
20650;DHT22;10484;48.736;9.332;2023-08-30T15:32:17;19.80;21.80